createdAt,value
2018-01-22T11:17:13.804Z,93.13
2018-01-22T11:18:13.744Z,93.61
2018-01-22T11:20:08.192Z,93.80
2018-01-22T11:21:08.175Z,94.93
2018-01-22T11:23:02.562Z,95.31
2018-01-22T11:24:02.504Z,94.65
2018-01-22T11:25:56.870Z,94.84
2018-01-22T11:26:56.876Z,95.60
2018-01-22T11:28:51.254Z,95.50
2018-01-22T11:29:51.206Z,95.50
2018-01-22T11:31:45.574Z,95.31
2018-01-22T11:32:45.583Z,95.22
2018-01-22T11:34:44.486Z,94.65
2018-01-22T11:35:44.367Z,94.70
2018-01-22T11:37:38.881Z,93.80
2018-01-22T11:38:38.715Z,94.27
2018-01-22T11:40:33.111Z,93.70
2018-01-22T11:41:33.081Z,94.74
2018-01-22T11:43:27.505Z,95.03
2018-01-22T11:44:27.437Z,94.04
2018-01-22T11:46:21.807Z,94.08
2018-01-22T11:47:21.789Z,94.27
2018-01-22T11:49:16.192Z,94.08
2018-01-22T11:50:16.140Z,94.32
2018-01-22T11:52:10.498Z,93.70
2018-01-22T11:53:10.485Z,94.27
2018-01-22T11:55:04.931Z,94.37
2018-01-22T11:56:04.840Z,94.37
2018-01-22T11:57:59.713Z,93.61
2018-01-22T11:58:59.809Z,94.04
2018-01-22T12:00:54.122Z,93.42
2018-01-22T12:01:54.062Z,92.66
2018-01-22T12:03:48.427Z,92.80
2018-01-22T12:04:48.409Z,92.14
2018-01-22T12:06:42.872Z,92.42
2018-01-22T12:07:42.738Z,93.08
2018-01-22T12:09:37.108Z,93.08
2018-01-22T12:10:37.092Z,92.33
2018-01-22T12:12:31.552Z,92.04
2018-01-22T12:13:31.450Z,91.57
2018-01-22T12:15:25.805Z,92.04
2018-01-22T12:16:25.797Z,91.57
2018-01-22T12:18:20.251Z,92.14
2018-01-22T12:19:20.162Z,91.95
2018-01-22T12:21:14.609Z,90.81
2018-01-22T12:22:14.518Z,90.62
2018-01-22T12:24:08.886Z,91.95
2018-01-22T12:25:08.875Z,91.57
2018-01-22T12:27:03.273Z,91.09
2018-01-22T12:28:03.221Z,91.00
2018-01-22T12:29:57.584Z,91.00
2018-01-22T12:30:57.577Z,90.24
2018-01-22T12:32:51.034Z,90.24
2018-01-22T12:33:50.932Z,89.96
2018-01-22T12:35:45.343Z,89.96
2018-01-22T12:36:45.356Z,89.86
2018-01-22T12:38:39.711Z,90.34
2018-01-22T12:39:39.645Z,90.34
2018-01-22T12:41:34.004Z,90.34
2018-01-22T12:42:33.999Z,90.62
2018-01-22T12:44:29.389Z,90.34
2018-01-22T12:45:29.347Z,89.96
2018-01-22T12:47:23.718Z,90.15
2018-01-22T12:48:23.736Z,90.34
2018-01-22T12:50:18.168Z,90.05
2018-01-22T12:51:18.068Z,90.05
2018-01-22T12:53:12.451Z,89.77
2018-01-22T12:54:12.421Z,89.86
2018-01-22T12:56:06.898Z,89.96
2018-01-22T12:57:06.954Z,89.29
2018-01-22T12:59:00.217Z,89.67
2018-01-22T13:00:00.137Z,90.15
2018-01-22T13:01:54.564Z,90.15
2018-01-22T13:02:54.508Z,89.67
2018-01-22T13:04:48.871Z,89.20
2018-01-22T13:05:48.860Z,89.39
2018-01-22T13:07:43.290Z,90.05
2018-01-22T13:08:43.243Z,90.15
2018-01-22T13:10:37.607Z,88.82
2018-01-22T13:11:37.599Z,89.48
2018-01-22T13:13:32.060Z,89.20
2018-01-22T13:14:32.002Z,89.77
2018-01-22T13:16:26.365Z,89.86
2018-01-22T13:17:26.311Z,89.96
2018-01-22T13:19:20.836Z,89.67
2018-01-22T13:20:20.668Z,89.86
2018-01-22T13:22:15.033Z,90.15
2018-01-22T13:23:15.049Z,89.39
2018-01-22T13:25:09.431Z,89.39
2018-01-22T13:26:09.636Z,89.62
2018-01-22T13:28:03.773Z,89.15
2018-01-22T13:29:03.760Z,88.87
2018-01-22T13:30:58.325Z,88.87
2018-01-22T13:31:58.145Z,88.29
2018-01-22T13:33:52.560Z,88.48
2018-01-22T13:34:52.474Z,88.29
2018-01-22T13:36:46.827Z,88.58
2018-01-22T13:37:46.817Z,88.39
2018-01-22T13:39:41.232Z,87.73
2018-01-22T13:40:41.178Z,88.01
2018-01-22T13:42:35.590Z,87.92
2018-01-22T13:43:35.653Z,87.82
2018-01-22T13:45:29.947Z,88.10
2018-01-22T13:46:29.893Z,87.25
2018-01-22T13:48:24.261Z,87.25
2018-01-22T13:49:24.251Z,87.25
2018-01-22T13:51:18.904Z,87.25
2018-01-22T13:52:18.616Z,87.45
2018-01-22T13:54:12.984Z,86.78
2018-01-22T13:55:13.029Z,86.78
2018-01-22T13:57:07.387Z,86.78
2018-01-22T13:58:07.330Z,86.87
2018-01-22T14:00:01.747Z,87.16
2018-01-22T14:01:01.692Z,87.54
2018-01-22T14:02:56.049Z,87.63
2018-01-22T14:03:56.047Z,87.73
2018-01-22T14:05:50.437Z,86.87
2018-01-22T14:06:50.378Z,87.54
2018-01-22T14:08:49.591Z,86.68
2018-01-22T14:09:49.585Z,87.54
2018-01-22T14:11:44.037Z,87.45
2018-01-22T14:12:43.941Z,87.45
2018-01-22T14:14:38.317Z,87.35
2018-01-22T14:15:38.302Z,87.25
2018-01-22T14:17:32.712Z,87.45
2018-01-22T14:18:32.662Z,87.25
2018-01-22T14:20:27.037Z,87.92
2018-01-22T14:21:27.033Z,87.92
2018-01-22T14:23:21.582Z,87.25
2018-01-22T14:24:21.420Z,86.97
2018-01-22T14:26:15.776Z,86.97
2018-01-22T14:27:15.772Z,87.16
2018-01-22T14:29:10.222Z,86.49
2018-01-22T14:30:10.124Z,86.68
2018-01-22T14:32:04.540Z,87.45
2018-01-22T14:33:04.486Z,87.92
2018-01-22T14:34:58.849Z,88.01
2018-01-22T14:35:58.852Z,88.68
2018-01-22T14:37:53.305Z,88.48
2018-01-22T14:38:53.241Z,88.58
2018-01-22T14:40:47.601Z,89.34
2018-01-22T14:41:47.563Z,89.43
2018-01-22T14:43:41.989Z,89.43
2018-01-22T14:44:41.923Z,89.81
2018-01-22T14:46:36.287Z,89.34
2018-01-22T14:47:36.277Z,89.81
2018-01-22T14:49:30.725Z,90.00
2018-01-22T14:50:30.623Z,89.91
2018-01-22T14:52:24.998Z,89.81
2018-01-22T14:53:24.984Z,89.25
2018-01-22T14:55:19.645Z,89.72
2018-01-22T14:56:19.369Z,89.81
2018-01-22T14:58:13.725Z,89.53
2018-01-22T14:59:13.703Z,89.62
2018-01-22T15:01:08.161Z,89.43
2018-01-22T15:02:08.056Z,89.72
2018-01-22T15:04:02.432Z,90.00
2018-01-22T15:05:02.447Z,89.91
2018-01-22T15:06:56.923Z,90.38
2018-01-22T15:07:56.804Z,90.19
2018-01-22T15:09:51.136Z,89.81
2018-01-22T15:10:51.129Z,90.00
2018-01-22T15:12:50.584Z,89.91
2018-01-22T15:13:50.475Z,90.10
2018-01-22T15:15:44.878Z,89.91
2018-01-22T15:16:44.824Z,90.19
2018-01-22T15:18:39.227Z,90.19
2018-01-22T15:19:39.174Z,90.19
2018-01-22T15:21:33.549Z,89.72
2018-01-22T15:22:33.822Z,90.19
2018-01-22T15:24:28.489Z,90.19
2018-01-22T15:25:27.901Z,90.38
2018-01-22T15:27:22.266Z,89.81
2018-01-22T15:28:22.265Z,90.29
2018-01-22T15:30:16.674Z,90.29
2018-01-22T15:31:16.612Z,90.38
2018-01-22T15:33:10.980Z,89.91
2018-01-22T15:34:10.976Z,90.00
2018-01-22T15:36:05.394Z,90.57
2018-01-22T15:37:05.348Z,90.95
2018-01-22T15:38:59.753Z,91.14
2018-01-22T15:39:59.703Z,91.14
2018-01-22T15:41:54.092Z,91.14
2018-01-22T15:42:54.118Z,90.86
2018-01-22T15:44:48.536Z,91.05
2018-01-22T15:45:48.435Z,91.24
2018-01-22T15:47:42.892Z,91.24
2018-01-22T15:48:42.819Z,90.86
2018-01-22T15:50:37.155Z,91.24
2018-01-22T15:51:37.146Z,91.24
2018-01-22T15:53:31.556Z,91.24
2018-01-22T15:54:31.505Z,91.24
2018-01-22T15:56:25.879Z,91.24
2018-01-22T15:57:25.863Z,90.67
2018-01-22T15:59:20.274Z,90.86
2018-01-22T16:00:20.246Z,91.24
2018-01-22T16:02:14.600Z,90.95
2018-01-22T16:03:14.570Z,90.86
2018-01-22T16:05:08.445Z,90.86
2018-01-22T16:06:09.717Z,91.05
2018-01-22T16:08:02.747Z,91.42
2018-01-22T16:09:02.386Z,90.95
2018-01-22T16:10:56.781Z,91.61
2018-01-22T16:11:56.753Z,91.05
2018-01-22T16:13:51.079Z,90.86
2018-01-22T16:14:51.129Z,90.67
2018-01-22T16:16:45.485Z,90.57
2018-01-22T16:17:45.432Z,90.86
2018-01-22T16:19:39.885Z,90.57
2018-01-22T16:20:39.779Z,89.81
2018-01-22T16:22:34.160Z,89.81
2018-01-22T16:23:34.149Z,90.48
2018-01-22T16:25:28.638Z,90.76
2018-01-22T16:26:28.527Z,90.62
2018-01-22T16:28:22.990Z,91.33
2018-01-22T16:29:22.891Z,90.10
2018-01-22T16:31:17.258Z,90.81
2018-01-22T16:32:17.251Z,90.52
2018-01-22T16:34:11.809Z,91.05
2018-01-22T16:35:11.611Z,90.81
2018-01-22T16:37:05.976Z,91.09
2018-01-22T16:38:05.989Z,90.29
2018-01-22T16:40:00.433Z,90.62
2018-01-22T16:41:00.348Z,90.62
2018-01-22T16:42:54.745Z,90.62
2018-01-22T16:43:54.705Z,91.00
2018-01-22T16:45:49.557Z,90.43
2018-01-22T16:46:49.056Z,90.62
2018-01-22T16:48:43.422Z,90.81
2018-01-22T16:49:43.412Z,91.47
2018-01-22T16:51:41.945Z,91.09
2018-01-22T16:52:41.893Z,91.47
2018-01-22T16:54:41.041Z,91.00
2018-01-22T16:55:40.946Z,90.90
2018-01-22T16:56:40.938Z,90.90
2018-01-22T16:57:40.948Z,90.90
2018-01-22T16:58:40.979Z,91.38
2018-01-22T16:59:40.921Z,91.66
2018-01-22T17:00:40.923Z,90.90
2018-01-22T17:01:40.908Z,90.90
2018-01-22T17:02:40.907Z,91.09
2018-01-22T17:03:40.900Z,91.09
2018-01-22T17:04:40.896Z,91.47
2018-01-22T17:05:40.913Z,91.19
2018-01-22T17:06:40.881Z,91.14
2018-01-22T17:07:40.877Z,91.28
2018-01-22T17:08:40.871Z,91.09
2018-01-22T17:09:40.865Z,91.09
2018-01-22T17:10:40.863Z,91.05
2018-01-22T17:11:40.872Z,91.24
2018-01-22T17:12:40.850Z,91.47
2018-01-22T17:13:40.849Z,91.47
2018-01-22T17:14:40.857Z,91.94
2018-01-22T17:15:40.840Z,92.23
2018-01-22T17:16:40.837Z,91.38
2018-01-22T17:17:40.834Z,91.47
2018-01-22T17:18:40.861Z,91.00
2018-01-22T17:19:40.825Z,91.09
2018-01-22T17:20:40.864Z,91.28
2018-01-22T17:21:40.818Z,91.75
2018-01-22T17:22:40.801Z,91.09
2018-01-22T17:23:40.810Z,91.47
2018-01-22T17:24:40.793Z,90.62
2018-01-22T17:25:40.777Z,90.90
2018-01-22T17:26:40.772Z,91.19
2018-01-22T17:27:40.770Z,90.90
2018-01-22T17:28:40.758Z,91.19
2018-01-22T17:29:40.774Z,90.71
2018-01-22T17:30:40.747Z,90.81
2018-01-22T17:31:40.773Z,91.38
2018-01-22T17:32:40.741Z,90.33
2018-01-22T17:33:40.729Z,90.24
2018-01-22T17:34:40.728Z,90.14
2018-01-22T17:35:40.718Z,90.62
2018-01-22T17:36:40.740Z,90.71
2018-01-22T17:37:40.706Z,90.14
2018-01-22T17:38:40.702Z,90.05
2018-01-22T17:39:40.698Z,90.43
2018-01-22T17:40:40.686Z,90.62
2018-01-22T17:41:40.676Z,89.95
2018-01-22T17:42:40.683Z,89.95
2018-01-22T17:43:40.675Z,89.86
2018-01-22T17:44:40.715Z,90.14
2018-01-22T17:45:40.665Z,89.95
2018-01-22T17:46:41.303Z,90.14
2018-01-22T17:47:40.663Z,90.33
2018-01-22T17:48:40.667Z,89.76
2018-01-22T17:49:40.649Z,89.95
2018-01-22T17:50:42.317Z,90.33
2018-01-22T17:51:40.655Z,89.67
2018-01-22T17:52:40.650Z,90.14
2018-01-22T17:53:40.659Z,89.95
2018-01-22T17:54:40.632Z,89.72
2018-01-22T17:55:40.678Z,90.47
2018-01-22T17:56:40.628Z,89.90
2018-01-22T17:57:40.632Z,89.72
2018-01-22T17:58:40.645Z,90.00
2018-01-22T17:59:40.605Z,90.00
2018-01-22T18:00:40.651Z,89.53
2018-01-22T18:01:40.604Z,88.95
2018-01-22T18:02:40.610Z,89.33
2018-01-22T18:03:40.602Z,88.95
2018-01-22T18:04:40.604Z,88.86
2018-01-22T18:05:40.588Z,89.14
2018-01-22T18:06:40.652Z,88.67
2018-01-22T18:07:40.540Z,88.20
2018-01-22T18:08:40.583Z,88.67
2018-01-22T18:09:40.550Z,88.95
2018-01-22T18:10:40.591Z,88.67
2018-01-22T18:11:40.780Z,88.57
2018-01-22T18:12:40.529Z,88.48
2018-01-22T18:13:40.530Z,88.48
2018-01-22T18:14:40.548Z,89.43
2018-01-22T18:15:40.512Z,89.14
2018-01-22T18:16:40.511Z,89.14
2018-01-22T18:17:40.522Z,89.24
2018-01-22T18:18:40.498Z,88.86
2018-01-22T18:19:40.942Z,89.53
2018-01-22T18:20:40.489Z,89.24
2018-01-22T18:21:40.473Z,88.76
2018-01-22T18:22:40.485Z,88.86
2018-01-22T18:23:43.325Z,88.76
2018-01-22T18:24:40.475Z,88.67
2018-01-22T18:25:40.470Z,89.05
2018-01-22T18:26:40.443Z,89.33
2018-01-22T18:27:40.437Z,89.33
2018-01-22T18:28:40.489Z,89.14
2018-01-22T18:29:40.437Z,88.86
2018-01-22T18:30:40.433Z,88.67
2018-01-22T18:31:40.428Z,88.67
2018-01-22T18:32:40.429Z,88.67
2018-01-22T18:33:40.518Z,88.57
2018-01-22T18:34:40.413Z,88.57
2018-01-22T18:35:40.408Z,89.53
2018-01-22T18:36:40.402Z,89.53
2018-01-22T18:37:40.406Z,89.24
2018-01-22T18:38:40.406Z,88.67
2018-01-22T18:39:40.394Z,88.67
2018-01-22T18:40:40.386Z,88.57
2018-01-22T18:41:40.381Z,89.43
2018-01-22T18:42:40.372Z,88.67
2018-01-22T18:43:40.389Z,88.67
2018-01-22T18:44:40.364Z,88.57
2018-01-22T18:45:40.364Z,89.24
2018-01-22T18:46:40.354Z,89.05
2018-01-22T18:47:40.373Z,89.43
2018-01-22T18:48:40.355Z,89.14
2018-01-22T18:49:40.339Z,89.05
2018-01-22T18:50:40.350Z,89.72
2018-01-22T18:51:40.329Z,89.90
2018-01-22T18:52:40.367Z,89.81
2018-01-22T18:53:40.319Z,89.72
2018-01-22T18:54:40.315Z,89.90
2018-01-22T18:55:40.315Z,90.28
2018-01-22T18:56:40.303Z,90.47
2018-01-22T18:57:40.301Z,90.47
2018-01-22T18:58:40.298Z,90.57
2018-01-22T18:59:40.297Z,90.47
2018-01-22T19:00:40.274Z,90.28
2018-01-22T19:01:40.270Z,90.00
2018-01-22T19:02:40.281Z,90.47
2018-01-22T19:03:40.269Z,89.90
2018-01-22T19:04:40.270Z,89.53
2018-01-22T19:05:40.259Z,89.62
2018-01-22T19:06:40.253Z,90.00
2018-01-22T19:07:43.850Z,90.00
2018-01-22T19:08:40.588Z,89.62
2018-01-22T19:09:40.242Z,90.00
2018-01-22T19:10:40.241Z,89.90
2018-01-22T19:11:40.231Z,90.00
2018-01-22T19:12:40.231Z,90.00
2018-01-22T19:13:40.210Z,90.00
2018-01-22T19:14:40.203Z,89.90
2018-01-22T19:15:40.231Z,90.19
2018-01-22T19:16:40.205Z,89.72
2018-01-22T19:17:40.212Z,89.53
2018-01-22T19:18:40.682Z,90.00
2018-01-22T19:19:40.178Z,89.14
2018-01-22T19:20:40.174Z,89.14
2018-01-22T19:21:40.313Z,89.33
2018-01-22T19:22:40.181Z,89.05
2018-01-22T19:23:40.178Z,88.95
2018-01-22T19:24:40.174Z,88.95
2018-01-22T19:25:40.160Z,89.24
2018-01-22T19:26:40.154Z,89.05
2018-01-22T19:27:40.155Z,88.57
2018-01-22T19:28:40.145Z,89.05
2018-01-22T19:29:40.141Z,88.57
2018-01-22T19:30:40.136Z,88.67
2018-01-22T19:31:40.141Z,88.76
2018-01-22T19:32:40.131Z,88.48
2018-01-22T19:33:40.120Z,88.67
2018-01-22T19:34:40.117Z,88.01
2018-01-22T19:35:40.113Z,88.57
2018-01-22T19:36:40.880Z,88.67
2018-01-22T19:37:41.142Z,88.29
2018-01-22T19:38:41.756Z,88.15
2018-01-22T19:39:40.600Z,88.43
2018-01-22T19:40:40.077Z,87.38
2018-01-22T19:41:40.072Z,87.48
2018-01-22T19:42:40.078Z,87.15
2018-01-22T19:43:40.079Z,87.72
2018-01-22T19:44:40.105Z,87.53
2018-01-22T19:45:40.101Z,87.82
2018-01-22T19:46:40.073Z,88.39
2018-01-22T19:47:40.077Z,88.01
2018-01-22T19:48:40.763Z,88.29
2018-01-22T19:49:40.039Z,88.29
2018-01-22T19:50:40.301Z,87.91
2018-01-22T19:51:40.038Z,88.43
2018-01-22T19:52:40.088Z,87.38
2018-01-22T19:53:40.044Z,87.53
2018-01-22T19:54:40.032Z,87.57
2018-01-22T19:55:40.028Z,87.62
2018-01-22T19:56:40.022Z,87.67
2018-01-22T19:57:40.010Z,86.96
2018-01-22T19:58:40.000Z,87.19
2018-01-22T19:59:39.995Z,86.39
2018-01-22T20:00:39.996Z,86.82
2018-01-22T20:01:40.017Z,87.01
2018-01-22T20:02:40.190Z,86.96
2018-01-22T20:03:39.998Z,86.87
2018-01-22T20:04:40.018Z,87.82
2018-01-22T20:05:39.983Z,87.53
2018-01-22T20:06:39.994Z,87.72
2018-01-22T20:07:39.984Z,87.82
2018-01-22T20:08:39.986Z,87.53
2018-01-22T20:09:40.049Z,87.53
2018-01-22T20:10:39.981Z,87.53
2018-01-22T20:11:40.010Z,87.34
2018-01-22T20:12:39.963Z,87.34
2018-01-22T20:13:39.946Z,87.53
2018-01-22T20:14:39.940Z,87.53
2018-01-22T20:15:39.948Z,87.34
2018-01-22T20:16:39.939Z,87.67
2018-01-22T20:17:39.917Z,87.53
2018-01-22T20:18:39.928Z,87.53
2018-01-22T20:19:39.924Z,87.24
2018-01-22T20:20:39.938Z,87.82
2018-01-22T20:21:39.909Z,87.82
2018-01-22T20:22:39.898Z,87.48
2018-01-22T20:23:39.896Z,87.57
2018-01-22T20:24:39.885Z,87.57
2018-01-22T20:25:39.883Z,87.86
2018-01-22T20:26:40.323Z,86.91
2018-01-22T20:27:39.900Z,86.72
2018-01-22T20:28:39.917Z,87.10
2018-01-22T20:29:39.996Z,87.10
2018-01-22T20:30:39.931Z,87.10
2018-01-22T20:31:39.863Z,87.01
2018-01-22T20:32:39.871Z,86.24
2018-01-22T20:33:39.860Z,87.01
2018-01-22T20:34:39.838Z,86.91
2018-01-22T20:35:39.828Z,87.19
2018-01-22T20:36:40.090Z,86.24
2018-01-22T20:37:39.817Z,86.72
2018-01-22T20:38:39.802Z,86.34
2018-01-22T20:39:40.035Z,86.72
2018-01-22T20:40:39.794Z,86.53
2018-01-22T20:41:39.980Z,87.10
2018-01-22T20:42:39.853Z,86.53
2018-01-22T20:43:39.825Z,86.82
2018-01-22T20:44:39.801Z,86.53
2018-01-22T20:45:39.804Z,86.43
2018-01-22T20:46:40.390Z,86.43
2018-01-22T20:47:40.779Z,87.10
2018-01-22T20:48:39.778Z,87.01
2018-01-22T20:49:39.813Z,86.15
2018-01-22T20:50:39.853Z,86.34
2018-01-22T20:51:39.776Z,86.43
2018-01-22T20:52:39.766Z,86.53
2018-01-22T20:53:39.768Z,87.10
2018-01-22T20:54:39.783Z,86.82
2018-01-22T20:55:39.772Z,86.82
2018-01-22T20:56:39.956Z,86.43
2018-01-22T20:57:39.781Z,86.24
2018-01-22T20:58:39.753Z,86.43
2018-01-22T20:59:39.736Z,86.53
2018-01-22T21:00:39.727Z,86.43
2018-01-22T21:01:39.749Z,86.05
2018-01-22T21:02:39.729Z,86.34
2018-01-22T21:03:39.717Z,86.34
2018-01-22T21:04:39.698Z,86.24
2018-01-22T21:05:39.696Z,86.34
2018-01-22T21:06:39.696Z,86.43
2018-01-22T21:07:39.688Z,86.43
2018-01-22T21:08:39.753Z,86.15
2018-01-22T21:09:39.692Z,86.24
2018-01-22T21:10:39.659Z,86.15
2018-01-22T21:11:39.658Z,85.49
2018-01-22T21:12:39.669Z,86.15
2018-01-22T21:13:39.659Z,87.19
2018-01-22T21:14:40.758Z,86.24
2018-01-22T21:15:39.636Z,86.53
2018-01-22T21:16:40.431Z,86.53
2018-01-22T21:17:39.636Z,86.63
2018-01-22T21:18:39.625Z,86.82
2018-01-22T21:19:39.642Z,86.34
2018-01-22T21:20:39.668Z,86.34
2018-01-22T21:21:40.288Z,86.15
2018-01-22T21:22:39.612Z,86.72
2018-01-22T21:23:39.603Z,86.24
2018-01-22T21:24:39.596Z,86.53
2018-01-22T21:25:39.586Z,86.43
2018-01-22T21:26:39.581Z,86.72
2018-01-22T21:27:39.577Z,86.53
2018-01-22T21:28:39.574Z,86.05
2018-01-22T21:29:39.575Z,86.34
2018-01-22T21:30:39.564Z,86.53
2018-01-22T21:31:39.558Z,86.15
2018-01-22T21:32:39.568Z,86.05
2018-01-22T21:33:39.550Z,86.34
2018-01-22T21:34:39.548Z,85.96
2018-01-22T21:35:39.540Z,86.34
2018-01-22T21:36:39.536Z,86.63
2018-01-22T21:37:39.539Z,85.96
2018-01-22T21:38:40.024Z,86.34
2018-01-22T21:39:39.519Z,85.58
2018-01-22T21:40:39.509Z,86.05
2018-01-22T21:41:39.512Z,85.49
2018-01-22T21:42:39.508Z,85.30
2018-01-22T21:43:39.506Z,85.39
2018-01-22T21:44:39.505Z,85.58
2018-01-22T21:45:39.494Z,85.86
2018-01-22T21:46:39.505Z,85.49
2018-01-22T21:47:39.545Z,85.77
2018-01-22T21:48:39.481Z,85.39
2018-01-22T21:49:39.476Z,85.68
2018-01-22T21:50:39.472Z,85.86
2018-01-22T21:51:39.467Z,86.53
2018-01-22T21:52:39.500Z,86.24
2018-01-22T21:53:39.459Z,85.68
2018-01-22T21:54:39.457Z,86.34
2018-01-22T21:55:39.452Z,86.24
2018-01-22T21:56:39.452Z,86.24
2018-01-22T21:57:39.443Z,86.63
2018-01-22T21:58:39.481Z,86.34
2018-01-22T21:59:39.433Z,85.58
2018-01-22T22:00:39.425Z,85.86
2018-01-22T22:01:39.420Z,85.58
2018-01-22T22:02:39.417Z,85.96
2018-01-22T22:03:39.414Z,85.77
2018-01-22T22:04:39.409Z,85.86
2018-01-22T22:05:39.401Z,85.58
2018-01-22T22:06:39.401Z,85.77
2018-01-22T22:07:39.395Z,86.34
2018-01-22T22:08:39.392Z,86.24
2018-01-22T22:09:39.383Z,86.34
2018-01-22T22:10:39.379Z,85.77
2018-01-22T22:11:39.374Z,85.68
2018-01-22T22:12:39.370Z,85.77
2018-01-22T22:13:39.364Z,86.15
2018-01-22T22:14:39.678Z,86.24
2018-01-22T22:15:39.348Z,86.05
2018-01-22T22:16:39.397Z,86.15
2018-01-22T22:17:39.346Z,86.53
2018-01-22T22:18:39.342Z,86.91
2018-01-22T22:19:39.339Z,87.01
2018-01-22T22:20:39.449Z,87.10
2018-01-22T22:21:39.321Z,86.72
2018-01-22T22:22:39.313Z,86.82
2018-01-22T22:23:39.319Z,87.01
2018-01-22T22:24:39.315Z,87.76
2018-01-22T22:25:39.335Z,87.10
2018-01-22T22:26:39.335Z,88.05
2018-01-22T22:27:39.291Z,87.86
2018-01-22T22:28:39.322Z,87.10
2018-01-22T22:29:39.290Z,86.82
2018-01-22T22:30:39.285Z,87.57
2018-01-22T22:31:39.281Z,87.48
2018-01-22T22:32:39.275Z,87.57
2018-01-22T22:33:39.271Z,87.53
2018-01-22T22:34:39.280Z,87.57
2018-01-22T22:35:39.276Z,87.67
2018-01-22T22:36:39.257Z,87.57
2018-01-22T22:37:39.251Z,87.91
2018-01-22T22:38:39.246Z,87.95
2018-01-22T22:39:39.247Z,87.48
2018-01-22T22:40:39.238Z,88.10
2018-01-22T22:41:39.232Z,87.95
2018-01-22T22:42:39.228Z,88.05
2018-01-22T22:43:39.222Z,87.86
2018-01-22T22:44:39.219Z,88.05
2018-01-22T22:45:39.233Z,87.38
2018-01-22T22:46:39.207Z,87.01
2018-01-22T22:47:39.204Z,86.91
2018-01-22T22:48:39.200Z,87.19
2018-01-22T22:49:39.196Z,87.48
2018-01-22T22:50:39.188Z,87.67
2018-01-22T22:51:39.185Z,87.10
2018-01-22T22:52:39.180Z,87.01
2018-01-22T22:53:39.542Z,88.05
2018-01-22T22:54:39.170Z,87.48
2018-01-22T22:55:39.165Z,87.38
2018-01-22T22:56:39.162Z,87.67
2018-01-22T22:57:39.155Z,87.48
2018-01-22T22:58:39.153Z,87.48
2018-01-22T22:59:39.145Z,87.67
2018-01-22T23:00:39.142Z,87.86
2018-01-22T23:01:39.143Z,87.01
2018-01-22T23:02:39.132Z,87.10
2018-01-22T23:03:39.127Z,86.82
2018-01-22T23:04:39.123Z,87.01
2018-01-22T23:05:39.134Z,87.57
2018-01-22T23:06:39.115Z,87.57
2018-01-22T23:07:39.109Z,87.57
2018-01-22T23:08:39.104Z,87.67
2018-01-22T23:09:39.099Z,86.82
2018-01-22T23:10:39.096Z,87.10
2018-01-22T23:11:39.093Z,87.57
2018-01-22T23:12:39.095Z,88.15
2018-01-22T23:13:39.080Z,88.34
2018-01-22T23:14:39.076Z,88.24
2018-01-22T23:15:39.072Z,88.34
2018-01-22T23:16:39.069Z,88.15
2018-01-22T23:17:39.062Z,88.34
2018-01-22T23:18:39.064Z,88.53
2018-01-22T23:19:39.052Z,88.15
2018-01-22T23:20:39.048Z,88.53
2018-01-22T23:21:39.044Z,88.81
2018-01-22T23:22:39.769Z,87.86
2018-01-22T23:23:39.118Z,87.95
2018-01-22T23:24:40.007Z,88.05
2018-01-22T23:25:39.024Z,87.57
2018-01-22T23:26:39.024Z,87.57
2018-01-22T23:27:39.018Z,87.01
2018-01-22T23:28:39.014Z,87.01
2018-01-22T23:29:39.007Z,86.82
2018-01-22T23:30:39.001Z,87.19
2018-01-22T23:31:38.998Z,86.82
2018-01-22T23:32:38.992Z,87.01
2018-01-22T23:33:38.987Z,87.76
2018-01-22T23:34:38.986Z,87.10
2018-01-22T23:35:38.978Z,86.82
2018-01-22T23:36:38.979Z,86.82
2018-01-22T23:37:38.986Z,87.01
2018-01-22T23:38:38.964Z,87.10
2018-01-22T23:39:38.960Z,86.82
2018-01-22T23:40:38.957Z,87.01
2018-01-22T23:41:38.949Z,87.76
2018-01-22T23:42:38.945Z,86.82
2018-01-22T23:43:38.942Z,87.19
2018-01-22T23:44:38.941Z,87.01
2018-01-22T23:45:38.930Z,87.57
2018-01-22T23:46:38.927Z,87.57
2018-01-22T23:47:38.922Z,88.43
2018-01-22T23:48:38.919Z,87.38
2018-01-22T23:49:38.923Z,87.57
2018-01-22T23:50:38.907Z,87.10
2018-01-22T23:51:38.905Z,87.01
2018-01-22T23:52:38.897Z,87.67
2018-01-22T23:53:38.892Z,87.38
2018-01-22T23:54:38.888Z,87.76
2018-01-22T23:55:38.884Z,87.10
2018-01-22T23:56:38.880Z,86.91
2018-01-22T23:57:38.873Z,86.91
2018-01-22T23:58:38.868Z,86.63
2018-01-22T23:59:38.866Z,87.01
